Terminal Aerodrome Forecast
Issued by NWS Memphis, TN

Home | Current Version | Previous Version | Text Only | Print | Product List | Glossary On
Versions: 1 2 3 4 5 6 7 8 9 10 11 12 13 14 15
419
FTUS44 KMEG 271731
TAFMKL
TAF
KMKL 271731Z 2718/2818 18010KT P6SM BKN150
     FM280000 15005KT P6SM SCT060 BKN150
     FM280500 17010KT P6SM VCSH OVC015
     FM280800 18010G16KT P6SM VCTS BKN008CB OVC015
      TEMPO 2810/2814 4SM -TSRA BR OVC006CB
     FM281700 20010G18KT P6SM SCT008 BKN020 OVC040=

USA.gov is the U.S. government's official web portal to all federal, state and local government web resources and services.